sensor_id;sensor_type;location;lat;lon;timestamp;P1;durP1;ratioP1;P2;durP2;ratioP2
33287;SDS011;19657;50.452;30.372;2023-06-04T19:59:27;11.70;;;6.60;;
33287;SDS011;19657;50.452;30.372;2023-06-04T20:02:14;11.50;;;4.90;;
33287;SDS011;19657;50.452;30.372;2023-06-04T20:05:01;7.40;;;3.30;;
33287;SDS011;19657;50.452;30.372;2023-06-04T20:07:48;7.60;;;2.70;;
33287;SDS011;19657;50.452;30.372;2023-06-04T20:12:11;7.30;;;3.00;;
33287;SDS011;19657;50.452;30.372;2023-06-04T20:14:57;10.50;;;2.70;;
33287;SDS011;19657;50.452;30.372;2023-06-04T20:17:43;6.90;;;2.70;;
33287;SDS011;19657;50.452;30.372;2023-06-04T20:20:30;7.60;;;2.90;;
33287;SDS011;19657;50.452;30.372;2023-06-04T20:23:17;5.40;;;2.50;;
33287;SDS011;19657;50.452;30.372;2023-06-04T20:26:04;7.00;;;2.40;;
33287;SDS011;19657;50.452;30.372;2023-06-04T20:28:50;10.40;;;2.40;;
33287;SDS011;19657;50.452;30.372;2023-06-04T20:31:38;6.90;;;2.50;;
33287;SDS011;19657;50.452;30.372;2023-06-04T20:34:24;14.90;;;3.10;;
33287;SDS011;19657;50.452;30.372;2023-06-04T20:37:12;10.10;;;2.90;;
33287;SDS011;19657;50.452;30.372;2023-06-04T20:39:58;7.10;;;2.80;;
33287;SDS011;19657;50.452;30.372;2023-06-04T20:42:44;5.70;;;2.80;;
33287;SDS011;19657;50.452;30.372;2023-06-04T20:45:34;7.30;;;3.10;;
33287;SDS011;19657;50.452;30.372;2023-06-04T20:48:20;8.00;;;2.90;;
33287;SDS011;19657;50.452;30.372;2023-06-04T20:51:06;7.60;;;2.90;;
33287;SDS011;19657;50.452;30.372;2023-06-04T20:53:52;5.40;;;2.90;;
33287;SDS011;19657;50.452;30.372;2023-06-04T20:56:38;8.70;;;3.30;;
33287;SDS011;19657;50.452;30.372;2023-06-04T20:59:25;7.30;;;2.80;;
33287;SDS011;19657;50.452;30.372;2023-06-04T21:02:25;6.40;;;3.50;;
33287;SDS011;19657;50.452;30.372;2023-06-04T21:05:11;9.70;;;3.10;;
33287;SDS011;19657;50.452;30.372;2023-06-04T21:07:58;6.10;;;2.40;;
33287;SDS011;19657;50.452;30.372;2023-06-04T21:10:47;6.70;;;3.20;;
33287;SDS011;19657;50.452;30.372;2023-06-04T21:13:33;8.20;;;2.80;;
33287;SDS011;19657;50.452;30.372;2023-06-04T21:16:20;9.90;;;3.80;;
33287;SDS011;19657;50.452;30.372;2023-06-04T21:19:06;7.70;;;2.80;;
33287;SDS011;19657;50.452;30.372;2023-06-04T21:21:52;7.00;;;3.10;;
33287;SDS011;19657;50.452;30.372;2023-06-04T21:24:38;7.30;;;3.40;;
33287;SDS011;19657;50.452;30.372;2023-06-04T21:27:24;6.50;;;2.80;;
33287;SDS011;19657;50.452;30.372;2023-06-04T21:30:10;11.80;;;3.60;;
33287;SDS011;19657;50.452;30.372;2023-06-04T21:32:57;6.80;;;2.90;;
33287;SDS011;19657;50.452;30.372;2023-06-04T21:35:43;5.30;;;2.10;;
33287;SDS011;19657;50.452;30.372;2023-06-04T21:38:29;5.80;;;1.80;;
33287;SDS011;19657;50.452;30.372;2023-06-04T21:41:15;6.40;;;2.50;;
33287;SDS011;19657;50.452;30.372;2023-06-04T21:44:01;3.90;;;1.80;;
33287;SDS011;19657;50.452;30.372;2023-06-04T21:46:47;6.30;;;1.80;;
33287;SDS011;19657;50.452;30.372;2023-06-04T21:49:33;8.30;;;1.80;;
33287;SDS011;19657;50.452;30.372;2023-06-04T21:52:19;4.30;;;1.90;;
33287;SDS011;19657;50.452;30.372;2023-06-04T21:55:10;6.20;;;1.90;;
33287;SDS011;19657;50.452;30.372;2023-06-04T21:57:56;3.80;;;1.70;;
33287;SDS011;19657;50.452;30.372;2023-06-04T22:00:43;4.70;;;2.10;;
33287;SDS011;19657;50.452;30.372;2023-06-04T22:03:29;6.20;;;1.90;;
33287;SDS011;19657;50.452;30.372;2023-06-04T22:06:15;5.80;;;1.80;;
33287;SDS011;19657;50.452;30.372;2023-06-04T22:09:03;7.30;;;2.20;;
33287;SDS011;19657;50.452;30.372;2023-06-04T22:11:49;8.70;;;2.50;;
33287;SDS011;19657;50.452;30.372;2023-06-04T22:14:35;17.80;;;2.80;;
33287;SDS011;19657;50.452;30.372;2023-06-04T22:17:23;4.50;;;2.10;;
33287;SDS011;19657;50.452;30.372;2023-06-04T22:20:09;6.90;;;3.30;;
33287;SDS011;19657;50.452;30.372;2023-06-04T22:22:56;7.20;;;3.60;;
33287;SDS011;19657;50.452;30.372;2023-06-04T22:25:42;11.30;;;4.90;;
33287;SDS011;19657;50.452;30.372;2023-06-04T22:28:28;9.70;;;5.40;;
33287;SDS011;19657;50.452;30.372;2023-06-04T22:31:14;12.40;;;6.10;;
33287;SDS011;19657;50.452;30.372;2023-06-04T22:34:01;14.60;;;6.20;;
33287;SDS011;19657;50.452;30.372;2023-06-04T22:36:47;14.20;;;6.00;;
33287;SDS011;19657;50.452;30.372;2023-06-04T22:39:33;12.30;;;5.10;;
33287;SDS011;19657;50.452;30.372;2023-06-04T22:42:19;7.60;;;3.60;;
33287;SDS011;19657;50.452;30.372;2023-06-04T22:45:06;9.40;;;4.20;;
33287;SDS011;19657;50.452;30.372;2023-06-04T22:47:53;9.70;;;4.20;;
33287;SDS011;19657;50.452;30.372;2023-06-04T22:50:39;11.10;;;5.20;;
33287;SDS011;19657;50.452;30.372;2023-06-04T22:53:26;18.50;;;6.70;;
33287;SDS011;19657;50.452;30.372;2023-06-04T22:56:15;9.40;;;5.40;;
33287;SDS011;19657;50.452;30.372;2023-06-04T22:59:00;10.80;;;5.20;;
33287;SDS011;19657;50.452;30.372;2023-06-04T23:01:48;6.80;;;3.30;;
33287;SDS011;19657;50.452;30.372;2023-06-04T23:04:34;6.00;;;2.80;;
33287;SDS011;19657;50.452;30.372;2023-06-04T23:07:20;6.30;;;2.80;;
33287;SDS011;19657;50.452;30.372;2023-06-04T23:10:06;7.80;;;4.20;;
33287;SDS011;19657;50.452;30.372;2023-06-04T23:12:53;13.10;;;4.20;;
33287;SDS011;19657;50.452;30.372;2023-06-04T23:15:39;6.70;;;3.50;;
33287;SDS011;19657;50.452;30.372;2023-06-04T23:18:25;8.40;;;3.00;;
33287;SDS011;19657;50.452;30.372;2023-06-04T23:21:11;10.30;;;3.00;;
33287;SDS011;19657;50.452;30.372;2023-06-04T23:23:57;12.00;;;2.90;;
33287;SDS011;19657;50.452;30.372;2023-06-04T23:26:43;8.70;;;2.80;;
33287;SDS011;19657;50.452;30.372;2023-06-04T23:29:29;11.60;;;2.70;;
33287;SDS011;19657;50.452;30.372;2023-06-04T23:32:15;6.00;;;2.20;;
33287;SDS011;19657;50.452;30.372;2023-06-04T23:35:01;7.00;;;2.10;;
33287;SDS011;19657;50.452;30.372;2023-06-04T23:37:47;8.90;;;2.20;;
33287;SDS011;19657;50.452;30.372;2023-06-04T23:40:33;4.90;;;2.40;;
33287;SDS011;19657;50.452;30.372;2023-06-04T23:43:19;6.50;;;2.70;;
33287;SDS011;19657;50.452;30.372;2023-06-04T23:46:05;8.30;;;2.50;;
33287;SDS011;19657;50.452;30.372;2023-06-04T23:48:51;4.80;;;2.20;;
33287;SDS011;19657;50.452;30.372;2023-06-04T23:51:37;7.90;;;2.50;;
33287;SDS011;19657;50.452;30.372;2023-06-04T23:54:23;7.40;;;3.10;;
33287;SDS011;19657;50.452;30.372;2023-06-04T23:57:09;8.10;;;2.50;;
33287;SDS011;19657;50.452;30.372;2023-06-04T23:59:55;9.40;;;2.20;;
